| time (UTC) | temp F | wind direction | speed MPH | gust MPH | rain 1hr in | rain 24hr in | rain mn in | humidity % | barometer mb |
| 20260905131837 | 55 | 280 | 25.0 | 36.0 | 0.00 | 0.00 | 0.00 | 71 | |
| 20260905121607 | 55 | 280 | 30.0 | 39.0 | 0.00 | 0.00 | 0.00 | 71 | |
| 20260905111640 | 54 | 280 | 24.0 | 37.0 | 0.00 | 0.00 | 0.00 | 81 | |
| 20260905102048 | 52 | 270 | 35.0 | 45.0 | 0.00 | 0.00 | 0.00 | 81 | |
| 20260905091607 | 48 | 280 | 26.0 | 37.0 | 0.00 | 0.00 | 0.00 | 93 | |
| 20260905081640 | 48 | 280 | 23.0 | 30.0 | 0.00 | 0.00 | 0.00 | 93 | |
| 20260905071939 | 46 | 270 | 26.0 | 36.0 | 0.00 | 0.00 | 0.00 | 99 | |
| 20260905061640 | 46 | 280 | 24.0 | 32.0 | 0.00 | 0.00 | 0.00 | 99 | |
| 20260905051640 | 46 | 280 | 25.0 | 32.0 | 0.00 | 0.00 | 0.00 | 99 | |
| 20260905042042 | 46 | 280 | 28.0 | 37.0 | 0.00 | 0.00 | 0.00 | 99 | |
| 20260905031640 | 48 | 280 | 20.0 | 28.0 | 0.00 | 0.00 | 0.00 | 99 | |
| 20260905021639 | 48 | 280 | 24.0 | 32.0 | 0.00 | 0.00 | 0.00 | 93 | |
| 20260905011940 | 46 | 290 | 25.0 | 33.0 | 0.00 | 0.00 | 0.00 | 99 | |
| 20260905001640 | 48 | 300 | 35.0 | 44.0 | 0.00 | 0.00 | 0.00 | 93 | |
| 20260904231640 | 48 | 300 | 36.0 | 49.0 | 0.00 | 0.00 | 0.00 | 99 | |
| 20260904222040 | 52 | 310 | 17.0 | 25.0 | 0.00 | 0.00 | 0.00 | 99 | |
| 20260904211641 | 61 | 270 | 35.0 | 45.0 | 0.00 | 0.00 | 0.00 | 82 | |
| 20260904201640 | 61 | 270 | 32.0 | 44.0 | 0.00 | 0.00 | 0.00 | 82 | |
| 20260904191939 | 63 | 270 | 31.0 | 39.0 | 0.00 | 0.00 | 0.00 | 77 | |
| 20260904181640 | 63 | 260 | 31.0 | 40.0 | 0.00 | 0.00 | 0.00 | 77 | |
| 20260904171640 | 64 | 260 | 31.0 | 45.0 | 0.00 | 0.00 | 0.00 | 72 | |
| 20260904161940 | 64 | 260 | 26.0 | 37.0 | 0.00 | 0.00 | 0.00 | 77 | |
| 20260904151641 | 68 | 260 | 35.0 | 52.0 | 0.00 | 0.00 | 0.00 | 68 | |
| 20260904141639 | 64 | 250 | 32.0 | 43.0 | 0.00 | 0.00 | 0.00 | 77 |